Terminal Aerodrome Forecast
Issued by NWS

Home | Current Version | Previous Version | Text Only | Print | Product List | Glossary On
Versions: 1 2 3 4 5 6 7 8 9 10 11 12
000
FTUS43 KILX 011100
TAFBMI
TAF
KBMI 011137Z 0112/0212 19005KT P6SM SCT080 BKN250
     FM011900 22004KT P6SM VCTS BKN050CB
     FM020000 VRB03KT P6SM SCT150
     FM020500 VRB03KT 5SM BR SKC=

USA.gov is the U.S. government's official web portal to all federal, state and local government web resources and services.